sensor_id;sensor_type;location;lat;lon;timestamp;temperature;humidity
29775;DHT22;16676;51.202;6.774;2023-10-13T00:00:28;21.50;91.00
29775;DHT22;16676;51.202;6.774;2023-10-13T00:04:34;21.60;91.80
29775;DHT22;16676;51.202;6.774;2023-10-13T00:08:38;21.60;91.00
29775;DHT22;16676;51.202;6.774;2023-10-13T00:12:40;21.50;91.10
29775;DHT22;16676;51.202;6.774;2023-10-13T00:16:50;21.50;91.50
29775;DHT22;16676;51.202;6.774;2023-10-13T00:21:05;21.50;90.90
29775;DHT22;16676;51.202;6.774;2023-10-13T00:25:14;21.50;91.20
29775;DHT22;16676;51.202;6.774;2023-10-13T00:29:26;21.50;91.30
29775;DHT22;16676;51.202;6.774;2023-10-13T00:33:38;21.40;91.50
29775;DHT22;16676;51.202;6.774;2023-10-13T00:37:42;21.50;91.30
29775;DHT22;16676;51.202;6.774;2023-10-13T00:41:46;21.50;91.40
29775;DHT22;16676;51.202;6.774;2023-10-13T00:45:53;21.50;91.30
29775;DHT22;16676;51.202;6.774;2023-10-13T00:49:58;21.50;91.80
29775;DHT22;16676;51.202;6.774;2023-10-13T00:54:02;21.40;91.30
29775;DHT22;16676;51.202;6.774;2023-10-13T00:58:09;21.40;91.60
29775;DHT22;16676;51.202;6.774;2023-10-13T01:02:13;21.40;91.80
29775;DHT22;16676;51.202;6.774;2023-10-13T01:06:38;21.40;91.60
29775;DHT22;16676;51.202;6.774;2023-10-13T01:10:41;21.40;91.40
29775;DHT22;16676;51.202;6.774;2023-10-13T01:14:45;21.40;91.70
29775;DHT22;16676;51.202;6.774;2023-10-13T01:18:47;21.40;91.60
29775;DHT22;16676;51.202;6.774;2023-10-13T01:22:49;21.30;91.40
29775;DHT22;16676;51.202;6.774;2023-10-13T01:26:57;21.30;91.80
29775;DHT22;16676;51.202;6.774;2023-10-13T01:31:08;21.40;91.80
29775;DHT22;16676;51.202;6.774;2023-10-13T01:35:10;21.40;91.70
29775;DHT22;16676;51.202;6.774;2023-10-13T01:39:12;21.40;91.60
29775;DHT22;16676;51.202;6.774;2023-10-13T01:43:19;21.40;91.70
29775;DHT22;16676;51.202;6.774;2023-10-13T01:47:21;21.30;91.90
29775;DHT22;16676;51.202;6.774;2023-10-13T01:51:24;21.30;91.90
29775;DHT22;16676;51.202;6.774;2023-10-13T01:55:28;21.30;91.90
29775;DHT22;16676;51.202;6.774;2023-10-13T01:59:31;21.30;92.20
29775;DHT22;16676;51.202;6.774;2023-10-13T02:03:33;21.30;92.90
29775;DHT22;16676;51.202;6.774;2023-10-13T02:07:41;21.20;92.70
29775;DHT22;16676;51.202;6.774;2023-10-13T02:11:45;21.20;92.40
29775;DHT22;16676;51.202;6.774;2023-10-13T02:15:49;21.20;92.40
29775;DHT22;16676;51.202;6.774;2023-10-13T02:19:56;21.30;92.50
29775;DHT22;16676;51.202;6.774;2023-10-13T02:23:58;21.30;93.00
29775;DHT22;16676;51.202;6.774;2023-10-13T02:28:04;21.20;92.40
29775;DHT22;16676;51.202;6.774;2023-10-13T02:32:15;21.20;92.70
29775;DHT22;16676;51.202;6.774;2023-10-13T02:36:20;21.30;93.60
29775;DHT22;16676;51.202;6.774;2023-10-13T02:40:36;21.30;93.00
29775;DHT22;16676;51.202;6.774;2023-10-13T02:44:38;21.20;92.60
29775;DHT22;16676;51.202;6.774;2023-10-13T02:48:43;21.10;93.40
29775;DHT22;16676;51.202;6.774;2023-10-13T02:52:53;21.20;93.90
29775;DHT22;16676;51.202;6.774;2023-10-13T02:56:56;21.20;93.40
29775;DHT22;16676;51.202;6.774;2023-10-13T03:00:59;21.20;93.50
29775;DHT22;16676;51.202;6.774;2023-10-13T03:05:06;21.20;93.70
29775;DHT22;16676;51.202;6.774;2023-10-13T03:09:10;21.20;93.50
29775;DHT22;16676;51.202;6.774;2023-10-13T03:13:15;21.10;93.70
29775;DHT22;16676;51.202;6.774;2023-10-13T03:17:17;21.10;93.80
29775;DHT22;16676;51.202;6.774;2023-10-13T03:21:22;21.10;93.70
29775;DHT22;16676;51.202;6.774;2023-10-13T03:25:37;21.20;93.90
29775;DHT22;16676;51.202;6.774;2023-10-13T03:29:44;21.10;94.10
29775;DHT22;16676;51.202;6.774;2023-10-13T03:33:48;21.10;94.20
29775;DHT22;16676;51.202;6.774;2023-10-13T03:37:58;21.10;94.40
29775;DHT22;16676;51.202;6.774;2023-10-13T03:42:01;21.10;94.80
29775;DHT22;16676;51.202;6.774;2023-10-13T03:46:06;21.10;94.40
29775;DHT22;16676;51.202;6.774;2023-10-13T03:50:10;21.10;94.00
29775;DHT22;16676;51.202;6.774;2023-10-13T03:54:24;21.10;94.20
29775;DHT22;16676;51.202;6.774;2023-10-13T03:58:30;21.10;94.20
29775;DHT22;16676;51.202;6.774;2023-10-13T04:02:32;21.10;94.40
29775;DHT22;16676;51.202;6.774;2023-10-13T04:06:34;21.10;94.30
29775;DHT22;16676;51.202;6.774;2023-10-13T04:11:15;21.10;94.60
29775;DHT22;16676;51.202;6.774;2023-10-13T04:15:46;21.10;94.80
29775;DHT22;16676;51.202;6.774;2023-10-13T04:20:02;21.10;94.70
29775;DHT22;16676;51.202;6.774;2023-10-13T04:24:28;21.10;94.80
29775;DHT22;16676;51.202;6.774;2023-10-13T04:28:45;21.10;94.60
29775;DHT22;16676;51.202;6.774;2023-10-13T04:32:53;21.10;94.90
29775;DHT22;16676;51.202;6.774;2023-10-13T04:37:18;21.10;94.60
29775;DHT22;16676;51.202;6.774;2023-10-13T04:41:30;21.10;95.20
29775;DHT22;16676;51.202;6.774;2023-10-13T04:45:39;21.10;95.00
29775;DHT22;16676;51.202;6.774;2023-10-13T04:49:54;21.10;95.00
29775;DHT22;16676;51.202;6.774;2023-10-13T04:54:01;21.10;96.00
29775;DHT22;16676;51.202;6.774;2023-10-13T04:58:05;21.10;95.40
29775;DHT22;16676;51.202;6.774;2023-10-13T05:02:16;21.10;95.30
29775;DHT22;16676;51.202;6.774;2023-10-13T05:06:43;21.10;95.80
29775;DHT22;16676;51.202;6.774;2023-10-13T05:11:04;21.10;95.80
29775;DHT22;16676;51.202;6.774;2023-10-13T05:15:24;21.10;95.70
29775;DHT22;16676;51.202;6.774;2023-10-13T05:19:45;21.10;95.70
29775;DHT22;16676;51.202;6.774;2023-10-13T05:24:05;21.10;95.30
29775;DHT22;16676;51.202;6.774;2023-10-13T05:28:24;21.10;95.70
29775;DHT22;16676;51.202;6.774;2023-10-13T05:32:44;21.10;96.40
29775;DHT22;16676;51.202;6.774;2023-10-13T05:37:05;21.10;96.20
29775;DHT22;16676;51.202;6.774;2023-10-13T05:41:24;21.10;96.70
29775;DHT22;16676;51.202;6.774;2023-10-13T05:45:44;21.10;97.60
29775;DHT22;16676;51.202;6.774;2023-10-13T05:50:18;21.10;96.90
29775;DHT22;16676;51.202;6.774;2023-10-13T05:54:48;21.10;97.80
29775;DHT22;16676;51.202;6.774;2023-10-13T05:59:07;21.10;97.70
29775;DHT22;16676;51.202;6.774;2023-10-13T06:03:27;21.10;97.90
29775;DHT22;16676;51.202;6.774;2023-10-13T06:07:47;21.10;96.80
29775;DHT22;16676;51.202;6.774;2023-10-13T06:12:16;21.20;97.60
29775;DHT22;16676;51.202;6.774;2023-10-13T06:16:35;21.20;98.00
29775;DHT22;16676;51.202;6.774;2023-10-13T06:20:55;21.20;97.20
29775;DHT22;16676;51.202;6.774;2023-10-13T06:25:14;21.20;98.50
29775;DHT22;16676;51.202;6.774;2023-10-13T06:29:35;21.20;98.00
29775;DHT22;16676;51.202;6.774;2023-10-13T06:33:37;21.20;97.90
29775;DHT22;16676;51.202;6.774;2023-10-13T06:37:42;21.20;98.10
29775;DHT22;16676;51.202;6.774;2023-10-13T06:41:44;21.20;97.50
29775;DHT22;16676;51.202;6.774;2023-10-13T06:45:48;21.20;97.70
29775;DHT22;16676;51.202;6.774;2023-10-13T06:49:57;21.20;97.60
29775;DHT22;16676;51.202;6.774;2023-10-13T06:54:00;21.20;98.20
29775;DHT22;16676;51.202;6.774;2023-10-13T06:58:03;21.20;97.60
29775;DHT22;16676;51.202;6.774;2023-10-13T07:02:08;21.20;98.10
29775;DHT22;16676;51.202;6.774;2023-10-13T07:06:21;21.20;98.40
29775;DHT22;16676;51.202;6.774;2023-10-13T07:10:23;21.20;98.20
29775;DHT22;16676;51.202;6.774;2023-10-13T07:14:30;21.20;98.90
29775;DHT22;16676;51.202;6.774;2023-10-13T07:18:35;21.20;98.30
29775;DHT22;16676;51.202;6.774;2023-10-13T07:22:42;21.20;98.50
29775;DHT22;16676;51.202;6.774;2023-10-13T07:26:55;21.20;98.40
29775;DHT22;16676;51.202;6.774;2023-10-13T07:31:03;21.20;98.70
29775;DHT22;16676;51.202;6.774;2023-10-13T07:35:16;21.20;98.40
29775;DHT22;16676;51.202;6.774;2023-10-13T07:39:20;21.20;98.90
29775;DHT22;16676;51.202;6.774;2023-10-13T07:43:24;21.20;99.10
29775;DHT22;16676;51.202;6.774;2023-10-13T07:47:28;21.20;98.80
29775;DHT22;16676;51.202;6.774;2023-10-13T07:51:34;21.20;99.00
29775;DHT22;16676;51.202;6.774;2023-10-13T07:55:45;21.30;99.80
29775;DHT22;16676;51.202;6.774;2023-10-13T07:59:49;21.30;99.20
29775;DHT22;16676;51.202;6.774;2023-10-13T08:03:54;21.40;98.90
29775;DHT22;16676;51.202;6.774;2023-10-13T08:08:11;21.40;99.20
29775;DHT22;16676;51.202;6.774;2023-10-13T08:12:16;21.40;98.40
29775;DHT22;16676;51.202;6.774;2023-10-13T08:16:22;21.50;99.00
29775;DHT22;16676;51.202;6.774;2023-10-13T08:20:29;21.50;99.00
29775;DHT22;16676;51.202;6.774;2023-10-13T08:24:40;21.50;98.50
29775;DHT22;16676;51.202;6.774;2023-10-13T08:28:57;21.60;97.50
29775;DHT22;16676;51.202;6.774;2023-10-13T08:33:20;21.70;97.60
29775;DHT22;16676;51.202;6.774;2023-10-13T08:37:26;21.80;97.00
29775;DHT22;16676;51.202;6.774;2023-10-13T08:41:32;22.00;96.60
29775;DHT22;16676;51.202;6.774;2023-10-13T08:45:40;22.00;96.90
29775;DHT22;16676;51.202;6.774;2023-10-13T08:49:55;22.10;96.10
29775;DHT22;16676;51.202;6.774;2023-10-13T08:54:15;22.10;96.60
29775;DHT22;16676;51.202;6.774;2023-10-13T08:58:37;22.20;96.00
29775;DHT22;16676;51.202;6.774;2023-10-13T09:02:57;22.20;95.40
29775;DHT22;16676;51.202;6.774;2023-10-13T09:07:21;22.20;95.70
29775;DHT22;16676;51.202;6.774;2023-10-13T09:11:26;22.20;95.40
29775;DHT22;16676;51.202;6.774;2023-10-13T09:15:32;22.20;96.50
29775;DHT22;16676;51.202;6.774;2023-10-13T09:19:49;22.30;97.60
29775;DHT22;16676;51.202;6.774;2023-10-13T09:23:56;22.20;96.60
29775;DHT22;16676;51.202;6.774;2023-10-13T09:28:28;22.40;97.30
29775;DHT22;16676;51.202;6.774;2023-10-13T09:32:32;22.40;95.90
29775;DHT22;16676;51.202;6.774;2023-10-13T09:36:46;22.50;96.00
29775;DHT22;16676;51.202;6.774;2023-10-13T09:40:56;22.50;95.30
29775;DHT22;16676;51.202;6.774;2023-10-13T09:45:01;22.50;96.10
29775;DHT22;16676;51.202;6.774;2023-10-13T09:49:11;22.60;95.20
29775;DHT22;16676;51.202;6.774;2023-10-13T09:53:23;22.70;95.50
29775;DHT22;16676;51.202;6.774;2023-10-13T09:57:28;22.70;92.20
29775;DHT22;16676;51.202;6.774;2023-10-13T10:01:40;22.80;90.80
29775;DHT22;16676;51.202;6.774;2023-10-13T10:05:58;22.80;89.30
29775;DHT22;16676;51.202;6.774;2023-10-13T10:10:08;22.80;87.20
29775;DHT22;16676;51.202;6.774;2023-10-13T10:14:16;22.80;86.20
29775;DHT22;16676;51.202;6.774;2023-10-13T10:18:23;22.80;85.20
29775;DHT22;16676;51.202;6.774;2023-10-13T10:22:27;22.80;84.40
29775;DHT22;16676;51.202;6.774;2023-10-13T10:26:31;22.80;83.30
29775;DHT22;16676;51.202;6.774;2023-10-13T10:30:34;22.80;82.80
29775;DHT22;16676;51.202;6.774;2023-10-13T10:34:40;22.80;82.80
29775;DHT22;16676;51.202;6.774;2023-10-13T10:38:52;22.80;82.40
29775;DHT22;16676;51.202;6.774;2023-10-13T10:42:56;22.80;82.80
29775;DHT22;16676;51.202;6.774;2023-10-13T10:47:11;22.90;82.40
29775;DHT22;16676;51.202;6.774;2023-10-13T10:51:21;22.90;81.60
29775;DHT22;16676;51.202;6.774;2023-10-13T10:55:23;23.00;81.10
29775;DHT22;16676;51.202;6.774;2023-10-13T10:59:34;23.10;80.50
29775;DHT22;16676;51.202;6.774;2023-10-13T11:03:38;23.10;80.40
29775;DHT22;16676;51.202;6.774;2023-10-13T11:07:46;23.10;80.00
29775;DHT22;16676;51.202;6.774;2023-10-13T11:11:52;23.10;79.20
29775;DHT22;16676;51.202;6.774;2023-10-13T11:15:54;23.10;79.10
29775;DHT22;16676;51.202;6.774;2023-10-13T11:19:57;23.10;78.50
29775;DHT22;16676;51.202;6.774;2023-10-13T11:24:17;23.10;77.30
29775;DHT22;16676;51.202;6.774;2023-10-13T11:28:22;23.10;76.30
29775;DHT22;16676;51.202;6.774;2023-10-13T11:32:28;23.10;75.50
29775;DHT22;16676;51.202;6.774;2023-10-13T11:36:30;23.20;75.20
29775;DHT22;16676;51.202;6.774;2023-10-13T11:40:35;23.20;74.90
29775;DHT22;16676;51.202;6.774;2023-10-13T11:45:06;23.30;75.30
29775;DHT22;16676;51.202;6.774;2023-10-13T11:49:29;23.30;75.10
29775;DHT22;16676;51.202;6.774;2023-10-13T11:53:38;23.30;73.80
29775;DHT22;16676;51.202;6.774;2023-10-13T11:57:41;23.40;73.80
29775;DHT22;16676;51.202;6.774;2023-10-13T12:01:44;23.30;73.60
29775;DHT22;16676;51.202;6.774;2023-10-13T12:06:00;23.40;72.80
29775;DHT22;16676;51.202;6.774;2023-10-13T12:10:19;23.40;72.00
29775;DHT22;16676;51.202;6.774;2023-10-13T12:14:51;23.40;72.20
29775;DHT22;16676;51.202;6.774;2023-10-13T12:18:56;23.40;73.40
29775;DHT22;16676;51.202;6.774;2023-10-13T12:22:59;23.40;71.90
29775;DHT22;16676;51.202;6.774;2023-10-13T12:27:10;23.40;72.20
29775;DHT22;16676;51.202;6.774;2023-10-13T12:31:22;23.40;71.20
29775;DHT22;16676;51.202;6.774;2023-10-13T12:35:27;23.40;70.80
29775;DHT22;16676;51.202;6.774;2023-10-13T12:39:35;23.40;70.30
29775;DHT22;16676;51.202;6.774;2023-10-13T12:43:55;23.50;70.20
29775;DHT22;16676;51.202;6.774;2023-10-13T12:48:18;23.50;69.80
29775;DHT22;16676;51.202;6.774;2023-10-13T12:52:37;23.50;69.70
29775;DHT22;16676;51.202;6.774;2023-10-13T12:56:40;23.40;68.10
29775;DHT22;16676;51.202;6.774;2023-10-13T13:00:42;23.40;67.90
29775;DHT22;16676;51.202;6.774;2023-10-13T13:04:51;23.50;68.80
29775;DHT22;16676;51.202;6.774;2023-10-13T13:08:58;23.50;69.00
29775;DHT22;16676;51.202;6.774;2023-10-13T13:13:04;23.50;69.50
29775;DHT22;16676;51.202;6.774;2023-10-13T13:17:06;23.50;68.60
29775;DHT22;16676;51.202;6.774;2023-10-13T13:21:09;23.50;68.10
29775;DHT22;16676;51.202;6.774;2023-10-13T13:25:13;23.50;67.40
29775;DHT22;16676;51.202;6.774;2023-10-13T13:29:18;23.50;67.10
29775;DHT22;16676;51.202;6.774;2023-10-13T13:33:20;23.50;66.90
29775;DHT22;16676;51.202;6.774;2023-10-13T13:37:27;23.50;65.30
29775;DHT22;16676;51.202;6.774;2023-10-13T13:41:29;23.50;63.80
29775;DHT22;16676;51.202;6.774;2023-10-13T13:45:33;23.60;64.50
29775;DHT22;16676;51.202;6.774;2023-10-13T13:49:35;23.50;64.70
29775;DHT22;16676;51.202;6.774;2023-10-13T13:53:43;23.60;64.00
29775;DHT22;16676;51.202;6.774;2023-10-13T13:57:48;23.60;63.60
29775;DHT22;16676;51.202;6.774;2023-10-13T14:01:51;23.60;63.90
29775;DHT22;16676;51.202;6.774;2023-10-13T14:05:53;23.60;64.30
29775;DHT22;16676;51.202;6.774;2023-10-13T14:09:57;23.50;63.40
29775;DHT22;16676;51.202;6.774;2023-10-13T14:14:08;23.60;63.40
29775;DHT22;16676;51.202;6.774;2023-10-13T14:18:12;23.50;62.60
29775;DHT22;16676;51.202;6.774;2023-10-13T14:22:15;23.50;63.40
29775;DHT22;16676;51.202;6.774;2023-10-13T14:26:19;23.60;62.70
29775;DHT22;16676;51.202;6.774;2023-10-13T14:30:22;23.50;62.60
29775;DHT22;16676;51.202;6.774;2023-10-13T14:34:24;23.60;61.80
29775;DHT22;16676;51.202;6.774;2023-10-13T14:38:26;23.60;61.20
29775;DHT22;16676;51.202;6.774;2023-10-13T14:42:30;23.60;61.80
29775;DHT22;16676;51.202;6.774;2023-10-13T14:46:36;23.50;62.10
29775;DHT22;16676;51.202;6.774;2023-10-13T14:50:39;23.50;61.50
29775;DHT22;16676;51.202;6.774;2023-10-13T14:54:43;23.60;61.80
29775;DHT22;16676;51.202;6.774;2023-10-13T14:58:46;23.50;61.40
29775;DHT22;16676;51.202;6.774;2023-10-13T15:02:50;23.60;60.90
29775;DHT22;16676;51.202;6.774;2023-10-13T15:06:53;23.50;61.20
29775;DHT22;16676;51.202;6.774;2023-10-13T15:10:55;23.50;60.70
29775;DHT22;16676;51.202;6.774;2023-10-13T15:15:01;23.50;60.40
29775;DHT22;16676;51.202;6.774;2023-10-13T15:19:06;23.50;60.60
29775;DHT22;16676;51.202;6.774;2023-10-13T15:23:08;23.50;60.60
29775;DHT22;16676;51.202;6.774;2023-10-13T15:27:15;23.50;60.70
29775;DHT22;16676;51.202;6.774;2023-10-13T15:31:23;23.50;60.30
29775;DHT22;16676;51.202;6.774;2023-10-13T15:35:29;23.50;60.10
29775;DHT22;16676;51.202;6.774;2023-10-13T15:39:31;23.50;60.50
29775;DHT22;16676;51.202;6.774;2023-10-13T15:43:33;23.50;60.50
29775;DHT22;16676;51.202;6.774;2023-10-13T15:47:36;23.50;60.10
29775;DHT22;16676;51.202;6.774;2023-10-13T15:51:38;23.60;60.20
29775;DHT22;16676;51.202;6.774;2023-10-13T15:55:40;23.50;59.90
29775;DHT22;16676;51.202;6.774;2023-10-13T15:59:46;23.50;59.80
29775;DHT22;16676;51.202;6.774;2023-10-13T16:03:49;23.50;59.90
29775;DHT22;16676;51.202;6.774;2023-10-13T16:07:52;23.50;59.80
29775;DHT22;16676;51.202;6.774;2023-10-13T16:11:54;23.50;59.90
29775;DHT22;16676;51.202;6.774;2023-10-13T16:15:56;23.50;59.60
29775;DHT22;16676;51.202;6.774;2023-10-13T16:20:02;23.50;59.90
29775;DHT22;16676;51.202;6.774;2023-10-13T16:24:12;23.50;59.50
29775;DHT22;16676;51.202;6.774;2023-10-13T16:28:17;23.50;59.90
29775;DHT22;16676;51.202;6.774;2023-10-13T16:32:19;23.50;60.00
29775;DHT22;16676;51.202;6.774;2023-10-13T16:36:23;23.50;59.90
29775;DHT22;16676;51.202;6.774;2023-10-13T16:40:25;23.50;60.00
29775;DHT22;16676;51.202;6.774;2023-10-13T16:44:28;23.50;60.50
29775;DHT22;16676;51.202;6.774;2023-10-13T16:48:32;23.50;60.10
29775;DHT22;16676;51.202;6.774;2023-10-13T16:52:35;23.50;60.30
29775;DHT22;16676;51.202;6.774;2023-10-13T16:56:37;23.50;60.50
29775;DHT22;16676;51.202;6.774;2023-10-13T17:00:39;23.50;60.70
29775;DHT22;16676;51.202;6.774;2023-10-13T17:04:43;23.50;60.60
29775;DHT22;16676;51.202;6.774;2023-10-13T17:08:46;23.50;61.20
29775;DHT22;16676;51.202;6.774;2023-10-13T17:12:48;23.50;61.60
29775;DHT22;16676;51.202;6.774;2023-10-13T17:16:50;23.40;61.90
29775;DHT22;16676;51.202;6.774;2023-10-13T17:20:52;23.50;63.00
29775;DHT22;16676;51.202;6.774;2023-10-13T17:24:58;23.40;62.00
29775;DHT22;16676;51.202;6.774;2023-10-13T17:29:01;23.50;62.10
29775;DHT22;16676;51.202;6.774;2023-10-13T17:33:09;23.40;62.20
29775;DHT22;16676;51.202;6.774;2023-10-13T17:37:13;23.50;62.50
29775;DHT22;16676;51.202;6.774;2023-10-13T17:41:17;23.50;62.80
29775;DHT22;16676;51.202;6.774;2023-10-13T17:45:19;23.40;63.60
29775;DHT22;16676;51.202;6.774;2023-10-13T17:49:20;23.50;64.60
29775;DHT22;16676;51.202;6.774;2023-10-13T17:53:23;23.40;65.00
29775;DHT22;16676;51.202;6.774;2023-10-13T17:57:26;23.40;65.20
29775;DHT22;16676;51.202;6.774;2023-10-13T18:01:28;23.40;65.40
29775;DHT22;16676;51.202;6.774;2023-10-13T18:05:32;23.40;65.50
29775;DHT22;16676;51.202;6.774;2023-10-13T18:09:36;23.40;65.60
29775;DHT22;16676;51.202;6.774;2023-10-13T18:13:43;23.40;65.90
29775;DHT22;16676;51.202;6.774;2023-10-13T18:17:46;23.40;65.90
29775;DHT22;16676;51.202;6.774;2023-10-13T18:21:48;23.40;65.60
29775;DHT22;16676;51.202;6.774;2023-10-13T18:25:50;23.40;65.40
29775;DHT22;16676;51.202;6.774;2023-10-13T18:29:54;23.30;65.30
29775;DHT22;16676;51.202;6.774;2023-10-13T18:33:56;23.30;64.70
29775;DHT22;16676;51.202;6.774;2023-10-13T18:37:59;23.40;64.50
29775;DHT22;16676;51.202;6.774;2023-10-13T18:42:05;23.30;64.60
29775;DHT22;16676;51.202;6.774;2023-10-13T18:46:08;23.30;64.40
29775;DHT22;16676;51.202;6.774;2023-10-13T18:50:11;23.30;64.80
29775;DHT22;16676;51.202;6.774;2023-10-13T18:54:16;23.40;65.10
29775;DHT22;16676;51.202;6.774;2023-10-13T18:58:18;23.30;65.40
29775;DHT22;16676;51.202;6.774;2023-10-13T19:02:21;23.30;65.70
29775;DHT22;16676;51.202;6.774;2023-10-13T19:06:23;23.30;65.90
29775;DHT22;16676;51.202;6.774;2023-10-13T19:10:25;23.30;65.90
29775;DHT22;16676;51.202;6.774;2023-10-13T19:14:28;23.30;66.20
29775;DHT22;16676;51.202;6.774;2023-10-13T19:18:32;23.30;66.50
29775;DHT22;16676;51.202;6.774;2023-10-13T19:22:34;23.30;66.50
29775;DHT22;16676;51.202;6.774;2023-10-13T19:26:36;23.30;66.20
29775;DHT22;16676;51.202;6.774;2023-10-13T19:30:39;23.20;65.80
29775;DHT22;16676;51.202;6.774;2023-10-13T19:34:43;23.20;66.10
29775;DHT22;16676;51.202;6.774;2023-10-13T19:38:45;23.20;65.90
29775;DHT22;16676;51.202;6.774;2023-10-13T19:42:48;23.20;65.70
29775;DHT22;16676;51.202;6.774;2023-10-13T19:46:52;23.30;66.00
29775;DHT22;16676;51.202;6.774;2023-10-13T19:50:55;23.30;66.50
29775;DHT22;16676;51.202;6.774;2023-10-13T19:54:59;23.30;67.70
29775;DHT22;16676;51.202;6.774;2023-10-13T19:59:02;23.30;69.00
29775;DHT22;16676;51.202;6.774;2023-10-13T20:03:04;23.20;69.90
29775;DHT22;16676;51.202;6.774;2023-10-13T20:07:10;23.20;70.80
29775;DHT22;16676;51.202;6.774;2023-10-13T20:11:12;23.10;71.90
29775;DHT22;16676;51.202;6.774;2023-10-13T20:15:15;23.10;72.40
29775;DHT22;16676;51.202;6.774;2023-10-13T20:19:18;23.10;72.30
29775;DHT22;16676;51.202;6.774;2023-10-13T20:23:22;23.10;72.30
29775;DHT22;16676;51.202;6.774;2023-10-13T20:27:26;23.00;72.60
29775;DHT22;16676;51.202;6.774;2023-10-13T20:31:28;23.00;72.40
29775;DHT22;16676;51.202;6.774;2023-10-13T20:35:36;22.90;71.70
29775;DHT22;16676;51.202;6.774;2023-10-13T20:39:43;22.90;71.60
29775;DHT22;16676;51.202;6.774;2023-10-13T20:43:46;22.90;71.40
29775;DHT22;16676;51.202;6.774;2023-10-13T20:47:50;22.90;71.30
29775;DHT22;16676;51.202;6.774;2023-10-13T20:51:52;22.90;71.80
29775;DHT22;16676;51.202;6.774;2023-10-13T20:56:00;22.90;72.20
29775;DHT22;16676;51.202;6.774;2023-10-13T21:00:02;22.90;72.50
29775;DHT22;16676;51.202;6.774;2023-10-13T21:04:04;22.90;72.60
29775;DHT22;16676;51.202;6.774;2023-10-13T21:08:06;22.90;72.90
29775;DHT22;16676;51.202;6.774;2023-10-13T21:12:10;22.80;73.20
29775;DHT22;16676;51.202;6.774;2023-10-13T21:16:14;22.80;73.10
29775;DHT22;16676;51.202;6.774;2023-10-13T21:20:21;22.80;73.00
29775;DHT22;16676;51.202;6.774;2023-10-13T21:24:23;22.90;73.10
29775;DHT22;16676;51.202;6.774;2023-10-13T21:28:27;22.90;72.90
29775;DHT22;16676;51.202;6.774;2023-10-13T21:32:29;22.90;72.60
29775;DHT22;16676;51.202;6.774;2023-10-13T21:36:31;22.80;72.80
29775;DHT22;16676;51.202;6.774;2023-10-13T21:40:37;22.90;72.70
29775;DHT22;16676;51.202;6.774;2023-10-13T21:44:41;22.90;72.70
29775;DHT22;16676;51.202;6.774;2023-10-13T21:48:45;22.80;73.00
29775;DHT22;16676;51.202;6.774;2023-10-13T21:52:47;22.90;72.70
29775;DHT22;16676;51.202;6.774;2023-10-13T21:56:49;23.00;72.50
29775;DHT22;16676;51.202;6.774;2023-10-13T22:00:53;23.00;72.40
29775;DHT22;16676;51.202;6.774;2023-10-13T22:04:57;23.00;72.60
29775;DHT22;16676;51.202;6.774;2023-10-13T22:08:59;23.00;72.70
29775;DHT22;16676;51.202;6.774;2023-10-13T22:13:05;23.00;72.80
29775;DHT22;16676;51.202;6.774;2023-10-13T22:17:09;23.00;73.00
29775;DHT22;16676;51.202;6.774;2023-10-13T22:21:12;23.00;73.10
29775;DHT22;16676;51.202;6.774;2023-10-13T22:25:14;23.00;73.10
29775;DHT22;16676;51.202;6.774;2023-10-13T22:29:16;23.00;73.20
29775;DHT22;16676;51.202;6.774;2023-10-13T22:33:20;22.90;73.30
29775;DHT22;16676;51.202;6.774;2023-10-13T22:37:22;23.00;73.40
29775;DHT22;16676;51.202;6.774;2023-10-13T22:41:25;23.00;73.50
29775;DHT22;16676;51.202;6.774;2023-10-13T22:45:27;22.90;73.50
29775;DHT22;16676;51.202;6.774;2023-10-13T22:49:33;22.90;74.10
29775;DHT22;16676;51.202;6.774;2023-10-13T22:53:35;22.90;73.30
29775;DHT22;16676;51.202;6.774;2023-10-13T22:57:37;22.90;73.40
29775;DHT22;16676;51.202;6.774;2023-10-13T23:01:43;22.90;73.20
29775;DHT22;16676;51.202;6.774;2023-10-13T23:05:46;22.90;73.10
29775;DHT22;16676;51.202;6.774;2023-10-13T23:09:56;22.90;73.30
29775;DHT22;16676;51.202;6.774;2023-10-13T23:14:01;22.80;73.40
29775;DHT22;16676;51.202;6.774;2023-10-13T23:18:03;22.90;73.50
29775;DHT22;16676;51.202;6.774;2023-10-13T23:22:11;22.80;73.50
29775;DHT22;16676;51.202;6.774;2023-10-13T23:26:13;22.80;73.70
29775;DHT22;16676;51.202;6.774;2023-10-13T23:30:16;22.70;73.90
29775;DHT22;16676;51.202;6.774;2023-10-13T23:34:19;22.70;73.90
29775;DHT22;16676;51.202;6.774;2023-10-13T23:38:24;22.70;73.80
29775;DHT22;16676;51.202;6.774;2023-10-13T23:42:34;22.70;73.90
29775;DHT22;16676;51.202;6.774;2023-10-13T23:46:54;22.70;73.80
29775;DHT22;16676;51.202;6.774;2023-10-13T23:50:56;22.70;73.70
29775;DHT22;16676;51.202;6.774;2023-10-13T23:55:00;22.60;73.50
29775;DHT22;16676;51.202;6.774;2023-10-13T23:59:06;22.70;73.90
